Armadores I — SY8463 — position and weather

sailwx.info

Track history (hours):
 
Tides and Currents Weather Stations Pressure Air Temp Water Temp Dewpoint Dewpoint Depression Visibility Wind Speed Wind Dir Waves Ship Positions

Armadores I

Last reported at 2017-Mar-29 01:33 UTC. Time now 2017-Mar-29 09:24 UTC.
Position N 37°44' E 023°47'.

Length 32 m; draft 5.3 m.

Type: Tug. MMSI: 240694000.

Date/timePositionNaut miles runAvg speedWind from/ knotsBaromVisibWave heightAir tempDewpointWater temp
2017-Mar-29 01:33N 37°44' E 023°47'10 9.9
2017-Mar-29 00:33N 37°52' E 023°40'6 6.1
2017-Mar-28 23:33N 37°57' E 023°37'0 0.0
2017-Mar-28 22:33N 37°57' E 023°37'0 0.0
2017-Mar-28 21:33N 37°57' E 023°37'0 0.0
2017-Mar-28 20:33N 37°57' E 023°37'0 0.0
2017-Mar-28 19:33N 37°57' E 023°37'0 0.0
2017-Mar-28 18:33N 37°57' E 023°37'0 0.0
2017-Mar-28 17:34N 37°57' E 023°37'0 0.0
2017-Mar-28 16:33N 37°57' E 023°37'0 0.0
2017-Mar-28 15:33N 37°57' E 023°37'0 0.0
2017-Mar-28 14:33N 37°57' E 023°37'0 0.0
2017-Mar-28 13:33N 37°57' E 023°37'0 0.0
2017-Mar-28 12:33N 37°57' E 023°37'0 0.0
2017-Mar-28 11:33N 37°57' E 023°37'0 0.0
2017-Mar-28 10:33N 37°57' E 023°37'2 1.9
2017-Mar-28 09:33N 37°57' E 023°34'5 5.1
2017-Mar-28 08:33N 38°02' E 023°32'0 0.0
2017-Mar-28 07:33N 38°02' E 023°32'0 0.0
2017-Mar-28 06:33N 38°02' E 023°32'1 1.5
2017-Mar-28 05:34N 38°02' E 023°30'1 0.5
2017-Mar-28 04:34N 38°02' E 023°31'5 4.7
2017-Mar-28 03:33N 37°58' E 023°33'2 0.2
2017-Mar-27 18:04N 37°57' E 023°35'4 7.3
2017-Mar-27 17:33N 38°01' E 023°34'1 1.2
2017-Mar-27 16:33N 38°02' E 023°34'8 8.0
2017-Mar-27 15:33N 37°58' E 023°25'1 0.6
2017-Mar-27 14:33N 37°57' E 023°24'8 7.9
2017-Mar-27 13:34N 38°02' E 023°32'0 0.0
2017-Mar-27 12:33N 38°02' E 023°32'0 0.0
2017-Mar-27 11:33N 38°02' E 023°32'1 1.2
2017-Mar-27 10:33N 38°02' E 023°31'6 5.8
2017-Mar-27 09:33N 37°57' E 023°35'2 1.7
2017-Mar-27 08:33N 37°57' E 023°37'0 0.0
2017-Mar-27 07:33N 37°57' E 023°37'0 0.0
2017-Mar-27 06:33N 37°57' E 023°37'0 0.2
2017-Mar-27 05:33N 37°58' E 023°36'1 1.3
2017-Mar-27 04:33N 37°56' E 023°36'1 0.9
2017-Mar-27 03:34N 37°57' E 023°36'2 0.2
2017-Mar-26 17:33N 37°58' E 023°33'6 6.2
2017-Mar-26 16:33N 37°58' E 023°25'1 1.4
2017-Mar-26 15:33N 37°58' E 023°24'1 0.9
2017-Mar-26 14:34N 37°58' E 023°25'6 6.4
2017-Mar-26 13:34N 37°59' E 023°33'3 3.4
2017-Mar-26 12:33N 37°57' E 023°37'0 0.0
2017-Mar-26 11:33N 37°57' E 023°37'0 0.0
2017-Mar-26 10:34N 37°57' E 023°37'0 0.0
2017-Mar-26 09:33N 37°57' E 023°37'1 0.7
2017-Mar-26 08:34N 37°57' E 023°36'1 0.8
2017-Mar-26 07:33N 37°57' E 023°37'0 0.0
2017-Mar-26 06:33N 37°57' E 023°37'1 0.9
2017-Mar-26 05:34N 37°57' E 023°36'0 0.4
2017-Mar-26 04:33N 37°57' E 023°36'1 0.8
2017-Mar-26 03:33N 37°57' E 023°37'0 0.0
2017-Mar-25 11:05N 37°57' E 023°37'0 0.0
2017-Mar-25 10:33N 37°57' E 023°37'0 0.0
2017-Mar-25 09:33N 37°57' E 023°37'0 0.0
2017-Mar-25 08:33N 37°57' E 023°37'0 0.0
2017-Mar-25 07:33N 37°57' E 023°37'0 0.0
2017-Mar-25 06:33N 37°57' E 023°37'2 1.6
2017-Mar-25 05:33N 37°57' E 023°35'2 1.6
2017-Mar-25 04:33N 37°57' E 023°37'0 0.0
2017-Mar-24 11:33N 37°57' E 023°37'0 0.0
2017-Mar-24 10:33N 37°57' E 023°37'0 0.0
2017-Mar-24 09:33N 37°57' E 023°37'0 0.0
2017-Mar-24 08:33N 37°57' E 023°37'0 0.0
2017-Mar-24 07:33N 37°57' E 023°37'0 0.3
2017-Mar-24 06:33N 37°57' E 023°36'0 0.2
2017-Mar-24 05:33N 37°57' E 023°36'1 0.6
2017-Mar-24 04:33N 37°57' E 023°37'2 0.1
2017-Mar-23 16:33N 37°57' E 023°35'2 1.6
2017-Mar-23 15:33N 37°57' E 023°37'0 0.0
2017-Mar-23 14:33N 37°57' E 023°37'0 0.0
2017-Mar-23 13:33N 37°57' E 023°37'0 0.0
2017-Mar-23 12:34N 37°57' E 023°37'0 0.0
2017-Mar-23 11:33N 37°57' E 023°37'0 0.0
2017-Mar-23 10:33N 37°57' E 023°37'0 0.0
2017-Mar-23 09:33N 37°57' E 023°37'0 0.1
2017-Mar-23 08:33N 37°58' E 023°36'0 0.1
2017-Mar-23 07:16N 37°57' E 023°37'2 3.0
2017-Mar-23 06:34N 37°56' E 023°35'1 1.3
2017-Mar-23 05:33N 37°57' E 023°36'0 0.3
2017-Mar-23 04:33N 37°57' E 023°35'1 1.0
2017-Mar-23 03:28N 37°57' E 023°37'0 0.0
2017-Mar-23 02:30N 37°57' E 023°37'0 0.0
2017-Mar-23 01:33N 37°57' E 023°37'0 0.0
2017-Mar-23 00:33N 37°57' E 023°37'0 0.0
2017-Mar-22 23:31N 37°57' E 023°37'0 0.0
2017-Mar-22 22:34N 37°57' E 023°37'0 0.0
2017-Mar-22 19:33N 37°57' E 023°37'0 0.0
2017-Mar-22 18:33N 37°57' E 023°37'0 0.0
2017-Mar-22 17:20N 37°57' E 023°37'0 0.0
2017-Mar-22 16:33N 37°57' E 023°37'0 0.0
2017-Mar-22 15:29N 37°57' E 023°37'0 0.0
2017-Mar-22 13:32N 37°57' E 023°37'0 0.0
2017-Mar-22 12:31N 37°57' E 023°37'0 0.0
2017-Mar-22 11:33N 37°57' E 023°37'0 0.0
2017-Mar-22 10:32N 37°57' E 023°37'0 0.0
2017-Mar-22 09:33N 37°57' E 023°37'0 0.0
2017-Mar-22 08:33N 37°57' E 023°37'1 1.5
2017-Mar-22 07:33N 37°57' E 023°35'0 0.1
2017-Mar-22 06:34N 37°57' E 023°35'0 0.3
2017-Mar-22 05:33N 37°57' E 023°35'3 0.1
2017-Mar-20 17:33N 37°59' E 023°33'3 2.5
2017-Mar-20 16:33N 38°01' E 023°35'1 0.8
2017-Mar-20 15:33N 38°02' E 023°36'0 0.2
2017-Mar-20 14:33N 38°01' E 023°36'0 0.0
2017-Mar-20 13:33N 38°01' E 023°36'0 0.0
2017-Mar-20 12:33N 38°01' E 023°36'0 0.0
2017-Mar-20 11:33N 38°01' E 023°36'0 0.0
2017-Mar-20 10:33N 38°01' E 023°36'0 0.0
2017-Mar-20 09:33N 38°01' E 023°36'0 0.0
2017-Mar-20 08:33N 38°01' E 023°36'0 0.0
2017-Mar-20 07:33N 38°01' E 023°36'0 0.0
2017-Mar-20 06:33N 38°01' E 023°36'0 0.0
2017-Mar-20 05:33N 38°01' E 023°36'0 0.0
2017-Mar-20 04:33N 38°01' E 023°36'0 0.0
2017-Mar-20 03:33N 38°01' E 023°36'0 0.0
2017-Mar-20 02:33N 38°01' E 023°36'0 0.0
2017-Mar-20 01:33N 38°01' E 023°36'0 0.0
2017-Mar-20 00:33N 38°01' E 023°36'0 0.0
2017-Mar-19 23:33N 38°01' E 023°36'0 0.0
2017-Mar-19 22:33N 38°01' E 023°36'8 7.9
2017-Mar-19 21:33N 37°60' E 023°26'2 2.5
2017-Mar-19 20:33N 37°58' E 023°24'0 0.5
2017-Mar-19 19:33N 37°57' E 023°24'1 1.0
2017-Mar-19 18:33N 37°58' E 023°24'0 0.1
2017-Mar-19 17:33N 37°58' E 023°24'8 8.2
2017-Mar-19 16:33N 38°02' E 023°34'2 1.6
2017-Mar-19 15:33N 38°01' E 023°36'0 0.0
2017-Mar-19 14:33N 38°01' E 023°36'0 0.0
2017-Mar-19 13:33N 38°01' E 023°36'0 0.0
2017-Mar-19 12:33N 38°01' E 023°36'0 0.0
2017-Mar-19 11:33N 38°01' E 023°36'0 0.2
2017-Mar-19 10:20N 38°02' E 023°36'0 0.5
2017-Mar-19 09:33N 38°02' E 023°35'1 1.1
2017-Mar-19 08:34N 38°01' E 023°34'4 3.7
2017-Mar-19 07:33N 37°57' E 023°37'0 0.4
2017-Mar-19 06:33N 37°57' E 023°36'6 6.3
2017-Mar-19 05:34N 38°02' E 023°31'5 5.2
2017-Mar-19 04:33N 37°57' E 023°34'  
Track history (hours):
 
Tides and Currents Weather Stations Pressure Air Temp Water Temp Dewpoint Dewpoint Depression Visibility Wind Speed Wind Dir Waves Ship Positions

Armadores I

Last reported at 2017-Mar-29 01:33 UTC. Time now 2017-Mar-29 09:24 UTC.
Position N 37°44' E 023°47'.

Length 32 m; draft 5.3 m.

Type: Tug. MMSI: 240694000.

Date/timePositionNaut miles runAvg speedWind from/ knotsBaromVisibWave heightAir tempDewpointWater temp
2017-Mar-29 01:33N 37°44' E 023°47'10 9.9
2017-Mar-29 00:33N 37°52' E 023°40'6 6.1
2017-Mar-28 23:33N 37°57' E 023°37'0 0.0
2017-Mar-28 22:33N 37°57' E 023°37'0 0.0
2017-Mar-28 21:33N 37°57' E 023°37'0 0.0
2017-Mar-28 20:33N 37°57' E 023°37'0 0.0
2017-Mar-28 19:33N 37°57' E 023°37'0 0.0
2017-Mar-28 18:33N 37°57' E 023°37'0 0.0
2017-Mar-28 17:34N 37°57' E 023°37'0 0.0
2017-Mar-28 16:33N 37°57' E 023°37'0 0.0
2017-Mar-28 15:33N 37°57' E 023°37'0 0.0
2017-Mar-28 14:33N 37°57' E 023°37'0 0.0
2017-Mar-28 13:33N 37°57' E 023°37'0 0.0
2017-Mar-28 12:33N 37°57' E 023°37'0 0.0
2017-Mar-28 11:33N 37°57' E 023°37'0 0.0
2017-Mar-28 10:33N 37°57' E 023°37'2 1.9
2017-Mar-28 09:33N 37°57' E 023°34'5 5.1
2017-Mar-28 08:33N 38°02' E 023°32'0 0.0
2017-Mar-28 07:33N 38°02' E 023°32'0 0.0
2017-Mar-28 06:33N 38°02' E 023°32'1 1.5
2017-Mar-28 05:34N 38°02' E 023°30'1 0.5
2017-Mar-28 04:34N 38°02' E 023°31'5 4.7
2017-Mar-28 03:33N 37°58' E 023°33'2 0.2
2017-Mar-27 18:04N 37°57' E 023°35'4 7.3
2017-Mar-27 17:33N 38°01' E 023°34'1 1.2
2017-Mar-27 16:33N 38°02' E 023°34'8 8.0
2017-Mar-27 15:33N 37°58' E 023°25'1 0.6
2017-Mar-27 14:33N 37°57' E 023°24'8 7.9
2017-Mar-27 13:34N 38°02' E 023°32'0 0.0
2017-Mar-27 12:33N 38°02' E 023°32'0 0.0
2017-Mar-27 11:33N 38°02' E 023°32'1 1.2
2017-Mar-27 10:33N 38°02' E 023°31'6 5.8
2017-Mar-27 09:33N 37°57' E 023°35'2 1.7
2017-Mar-27 08:33N 37°57' E 023°37'0 0.0
2017-Mar-27 07:33N 37°57' E 023°37'0 0.0
2017-Mar-27 06:33N 37°57' E 023°37'0 0.2
2017-Mar-27 05:33N 37°58' E 023°36'1 1.3
2017-Mar-27 04:33N 37°56' E 023°36'1 0.9
2017-Mar-27 03:34N 37°57' E 023°36'2 0.2
2017-Mar-26 17:33N 37°58' E 023°33'6 6.2
2017-Mar-26 16:33N 37°58' E 023°25'1 1.4
2017-Mar-26 15:33N 37°58' E 023°24'1 0.9
2017-Mar-26 14:34N 37°58' E 023°25'6 6.4
2017-Mar-26 13:34N 37°59' E 023°33'3 3.4
2017-Mar-26 12:33N 37°57' E 023°37'0 0.0
2017-Mar-26 11:33N 37°57' E 023°37'0 0.0
2017-Mar-26 10:34N 37°57' E 023°37'0 0.0
2017-Mar-26 09:33N 37°57' E 023°37'1 0.7
2017-Mar-26 08:34N 37°57' E 023°36'1 0.8
2017-Mar-26 07:33N 37°57' E 023°37'0 0.0
2017-Mar-26 06:33N 37°57' E 023°37'1 0.9
2017-Mar-26 05:34N 37°57' E 023°36'0 0.4
2017-Mar-26 04:33N 37°57' E 023°36'1 0.8
2017-Mar-26 03:33N 37°57' E 023°37'0 0.0
2017-Mar-25 11:05N 37°57' E 023°37'0 0.0
2017-Mar-25 10:33N 37°57' E 023°37'0 0.0
2017-Mar-25 09:33N 37°57' E 023°37'0 0.0
2017-Mar-25 08:33N 37°57' E 023°37'0 0.0
2017-Mar-25 07:33N 37°57' E 023°37'0 0.0
2017-Mar-25 06:33N 37°57' E 023°37'2 1.6
2017-Mar-25 05:33N 37°57' E 023°35'2 1.6
2017-Mar-25 04:33N 37°57' E 023°37'0 0.0
2017-Mar-24 11:33N 37°57' E 023°37'0 0.0
2017-Mar-24 10:33N 37°57' E 023°37'0 0.0
2017-Mar-24 09:33N 37°57' E 023°37'0 0.0
2017-Mar-24 08:33N 37°57' E 023°37'0 0.0
2017-Mar-24 07:33N 37°57' E 023°37'0 0.3
2017-Mar-24 06:33N 37°57' E 023°36'0 0.2
2017-Mar-24 05:33N 37°57' E 023°36'1 0.6
2017-Mar-24 04:33N 37°57' E 023°37'2 0.1
2017-Mar-23 16:33N 37°57' E 023°35'2 1.6
2017-Mar-23 15:33N 37°57' E 023°37'0 0.0
2017-Mar-23 14:33N 37°57' E 023°37'0 0.0
2017-Mar-23 13:33N 37°57' E 023°37'0 0.0
2017-Mar-23 12:34N 37°57' E 023°37'0 0.0
2017-Mar-23 11:33N 37°57' E 023°37'0 0.0
2017-Mar-23 10:33N 37°57' E 023°37'0 0.0
2017-Mar-23 09:33N 37°57' E 023°37'0 0.1
2017-Mar-23 08:33N 37°58' E 023°36'0 0.1
2017-Mar-23 07:16N 37°57' E 023°37'2 3.0
2017-Mar-23 06:34N 37°56' E 023°35'1 1.3
2017-Mar-23 05:33N 37°57' E 023°36'0 0.3
2017-Mar-23 04:33N 37°57' E 023°35'1 1.0
2017-Mar-23 03:28N 37°57' E 023°37'0 0.0
2017-Mar-23 02:30N 37°57' E 023°37'0 0.0
2017-Mar-23 01:33N 37°57' E 023°37'0 0.0
2017-Mar-23 00:33N 37°57' E 023°37'0 0.0
2017-Mar-22 23:31N 37°57' E 023°37'0 0.0
2017-Mar-22 22:34N 37°57' E 023°37'0 0.0
2017-Mar-22 19:33N 37°57' E 023°37'0 0.0
2017-Mar-22 18:33N 37°57' E 023°37'0 0.0
2017-Mar-22 17:20N 37°57' E 023°37'0 0.0
2017-Mar-22 16:33N 37°57' E 023°37'0 0.0
2017-Mar-22 15:29N 37°57' E 023°37'0 0.0
2017-Mar-22 13:32N 37°57' E 023°37'0 0.0
2017-Mar-22 12:31N 37°57' E 023°37'0 0.0
2017-Mar-22 11:33N 37°57' E 023°37'0 0.0
2017-Mar-22 10:32N 37°57' E 023°37'0 0.0
2017-Mar-22 09:33N 37°57' E 023°37'0 0.0
2017-Mar-22 08:33N 37°57' E 023°37'1 1.5
2017-Mar-22 07:33N 37°57' E 023°35'0 0.1
2017-Mar-22 06:34N 37°57' E 023°35'0 0.3
2017-Mar-22 05:33N 37°57' E 023°35'3 0.1
2017-Mar-20 17:33N 37°59' E 023°33'3 2.5
2017-Mar-20 16:33N 38°01' E 023°35'1 0.8
2017-Mar-20 15:33N 38°02' E 023°36'0 0.2
2017-Mar-20 14:33N 38°01' E 023°36'0 0.0
2017-Mar-20 13:33N 38°01' E 023°36'0 0.0
2017-Mar-20 12:33N 38°01' E 023°36'0 0.0
2017-Mar-20 11:33N 38°01' E 023°36'0 0.0
2017-Mar-20 10:33N 38°01' E 023°36'0 0.0
2017-Mar-20 09:33N 38°01' E 023°36'0 0.0
2017-Mar-20 08:33N 38°01' E 023°36'0 0.0
2017-Mar-20 07:33N 38°01' E 023°36'0 0.0
2017-Mar-20 06:33N 38°01' E 023°36'0 0.0
2017-Mar-20 05:33N 38°01' E 023°36'0 0.0
2017-Mar-20 04:33N 38°01' E 023°36'0 0.0
2017-Mar-20 03:33N 38°01' E 023°36'0 0.0
2017-Mar-20 02:33N 38°01' E 023°36'0 0.0
2017-Mar-20 01:33N 38°01' E 023°36'0 0.0
2017-Mar-20 00:33N 38°01' E 023°36'0 0.0
2017-Mar-19 23:33N 38°01' E 023°36'0 0.0
2017-Mar-19 22:33N 38°01' E 023°36'8 7.9
2017-Mar-19 21:33N 37°60' E 023°26'2 2.5
2017-Mar-19 20:33N 37°58' E 023°24'0 0.5
2017-Mar-19 19:33N 37°57' E 023°24'1 1.0
2017-Mar-19 18:33N 37°58' E 023°24'0 0.1
2017-Mar-19 17:33N 37°58' E 023°24'8 8.2
2017-Mar-19 16:33N 38°02' E 023°34'2 1.6
2017-Mar-19 15:33N 38°01' E 023°36'0 0.0
2017-Mar-19 14:33N 38°01' E 023°36'0 0.0
2017-Mar-19 13:33N 38°01' E 023°36'0 0.0
2017-Mar-19 12:33N 38°01' E 023°36'0 0.0
2017-Mar-19 11:33N 38°01' E 023°36'0 0.2
2017-Mar-19 10:20N 38°02' E 023°36'0 0.5
2017-Mar-19 09:33N 38°02' E 023°35'1 1.1
2017-Mar-19 08:34N 38°01' E 023°34'4 3.7
2017-Mar-19 07:33N 37°57' E 023°37'0 0.4
2017-Mar-19 06:33N 37°57' E 023°36'6 6.3
2017-Mar-19 05:34N 38°02' E 023°31'5 5.2
2017-Mar-19 04:33N 37°57' E 023°34'  

Dump ship's entire track history